Time;durP1;ratioP1;P1;durP2;ratioP2;P2;SDS_P1;SDS_P2;PMS_P1;PMS_P2;Temp;Humidity;BMP_temperature;BMP_pressure;BME280_temperature;BME280_humidity;BME280_pressure;Samples;Min_cycle;Max_cycle;Signal;HPM_P1;HPM_P2
2023/04/29 00:01:21;;;;;;;42.75;24.88;;;;;;;;;;5118028;27;20046;-75
2023/04/29 00:03:47;;;;;;;47.72;26.52;;;;;;;;;;5158134;27;20487;-73
2023/04/29 00:06:13;;;;;;;43.25;25.65;;;;;;;;;;5142783;27;20042;-74
2023/04/29 00:08:39;;;;;;;46.00;24.23;;;;;;;;;;5157679;27;20517;-75
2023/04/29 00:11:05;;;;;;;44.85;25.30;;;;;;;;;;5143470;27;20043;-75
2023/04/29 00:13:31;;;;;;;44.97;26.83;;;;;;;;;;5117862;27;20480;-75
2023/04/29 00:15:57;;;;;;;44.70;24.20;;;;;;;;;;5130091;27;20070;-75
2023/04/29 00:18:23;;;;;;;44.55;25.63;;;;;;;;;;5118061;27;20480;-75
2023/04/29 00:20:49;;;;;;;51.40;27.33;;;;;;;;;;5107424;27;20515;-75
2023/04/29 00:23:15;;;;;;;51.20;26.70;;;;;;;;;;5133812;27;20058;-74
2023/04/29 00:25:42;;;;;;;46.38;27.00;;;;;;;;;;5156662;27;20049;-75
2023/04/29 00:28:08;;;;;;;49.90;26.88;;;;;;;;;;5133654;27;20047;-75
2023/04/29 00:30:34;;;;;;;57.15;26.88;;;;;;;;;;5134804;27;20044;-73
2023/04/29 00:33:00;;;;;;;43.92;25.67;;;;;;;;;;5132114;27;20054;-74
2023/04/29 00:35:26;;;;;;;44.40;26.20;;;;;;;;;;5124708;27;20042;-75
2023/04/29 00:37:52;;;;;;;50.88;26.85;;;;;;;;;;5121749;27;20048;-73
2023/04/29 00:40:19;;;;;;;45.90;24.35;;;;;;;;;;5135907;27;20483;-73
2023/04/29 00:42:45;;;;;;;46.03;25.30;;;;;;;;;;5136004;27;20070;-76
2023/04/29 00:45:11;;;;;;;44.92;23.30;;;;;;;;;;5117766;27;20395;-74
2023/04/29 00:47:38;;;;;;;43.53;24.27;;;;;;;;;;5134201;27;20043;-75
2023/04/29 00:50:07;;;;;;;40.70;23.60;;;;;;;;;;5121958;27;20035;-75
2023/04/29 00:52:34;;;;;;;47.05;22.98;;;;;;;;;;5120330;27;20412;-76
2023/04/29 00:55:00;;;;;;;45.33;24.48;;;;;;;;;;5134592;27;20041;-75
2023/04/29 00:57:29;;;;;;;39.97;23.05;;;;;;;;;;5134317;27;20131;-75
2023/04/29 00:59:58;;;;;;;39.38;22.73;;;;;;;;;;5120247;27;20514;-75
2023/04/29 01:02:25;;;;;;;44.17;22.50;;;;;;;;;;5134399;27;20499;-73
2023/04/29 01:04:51;;;;;;;43.05;24.30;;;;;;;;;;5135756;27;20091;-74
2023/04/29 01:07:30;;;;;;;46.72;21.98;;;;;;;;;;5121341;27;20490;-74
2023/04/29 01:10:10;;;;;;;41.10;21.60;;;;;;;;;;5120751;27;20392;-74
2023/04/29 01:12:36;;;;;;;39.20;22.20;;;;;;;;;;5121805;27;20063;-75
2023/04/29 01:15:08;;;;;;;41.55;22.35;;;;;;;;;;5117208;27;20047;-73
2023/04/29 01:17:51;;;;;;;45.85;21.80;;;;;;;;;;5120486;27;20058;-75
2023/04/29 01:20:18;;;;;;;42.38;21.95;;;;;;;;;;5134452;27;20404;-75
2023/04/29 01:22:44;;;;;;;39.13;20.17;;;;;;;;;;5135692;27;20476;-74
2023/04/29 01:25:11;;;;;;;41.28;20.75;;;;;;;;;;5120002;27;20047;-75
2023/04/29 01:27:37;;;;;;;42.38;20.60;;;;;;;;;;5136004;27;20046;-75
2023/04/29 01:30:07;;;;;;;37.83;20.48;;;;;;;;;;5156341;27;20399;-74
2023/04/29 01:32:39;;;;;;;39.45;21.25;;;;;;;;;;5136971;27;20038;-76
2023/04/29 01:35:11;;;;;;;39.63;21.98;;;;;;;;;;5137229;27;20039;-76
2023/04/29 01:37:42;;;;;;;41.72;21.40;;;;;;;;;;5155664;27;20142;-74
2023/04/29 01:40:28;;;;;;;38.95;21.13;;;;;;;;;;5155859;27;20045;-74
2023/04/29 01:43:02;;;;;;;39.83;21.67;;;;;;;;;;5155588;27;20039;-75
2023/04/29 01:45:28;;;;;;;45.45;22.67;;;;;;;;;;5136767;27;20047;-74
2023/04/29 01:47:55;;;;;;;41.17;21.10;;;;;;;;;;5155487;27;20504;-74
2023/04/29 01:50:21;;;;;;;43.55;22.55;;;;;;;;;;5155591;27;20044;-74
2023/04/29 01:52:48;;;;;;;41.58;20.77;;;;;;;;;;5140690;27;20088;-74
2023/04/29 01:55:14;;;;;;;39.85;22.52;;;;;;;;;;5155269;27;20487;-73
2023/04/29 01:57:40;;;;;;;46.42;21.42;;;;;;;;;;5155384;27;20126;-74
2023/04/29 02:00:07;;;;;;;43.63;22.58;;;;;;;;;;5119811;27;20042;-76
2023/04/29 02:02:34;;;;;;;39.55;20.60;;;;;;;;;;5145165;27;20047;-73
2023/04/29 02:05:00;;;;;;;39.95;21.50;;;;;;;;;;5121129;27;20050;-76
2023/04/29 02:07:26;;;;;;;44.08;21.25;;;;;;;;;;5134900;27;20038;-74
2023/04/29 02:09:52;;;;;;;41.03;20.92;;;;;;;;;;5155090;27;20042;-74
2023/04/29 02:12:18;;;;;;;37.53;20.25;;;;;;;;;;5139848;27;20035;-75
2023/04/29 02:14:46;;;;;;;45.20;21.38;;;;;;;;;;5122722;27;20035;-75
2023/04/29 02:17:13;;;;;;;40.88;20.48;;;;;;;;;;5136713;27;20050;-74
2023/04/29 02:19:39;;;;;;;45.35;20.95;;;;;;;;;;5131684;27;20039;-75
2023/04/29 02:22:05;;;;;;;38.45;20.15;;;;;;;;;;5134277;27;20039;-76
2023/04/29 02:24:31;;;;;;;38.25;21.58;;;;;;;;;;5130375;27;20298;-73
2023/04/29 02:26:58;;;;;;;35.92;20.50;;;;;;;;;;5116203;27;20396;-75
2023/04/29 02:29:26;;;;;;;38.42;21.45;;;;;;;;;;5096375;27;20044;-73
2023/04/29 02:31:52;;;;;;;45.20;21.10;;;;;;;;;;5134005;27;20055;-75
2023/04/29 02:34:18;;;;;;;42.47;20.63;;;;;;;;;;5112466;27;20035;-74
2023/04/29 02:36:44;;;;;;;34.85;20.42;;;;;;;;;;5132781;27;20737;-74
2023/04/29 02:39:10;;;;;;;35.67;19.95;;;;;;;;;;5133140;27;20518;-74
2023/04/29 02:41:36;;;;;;;35.50;19.40;;;;;;;;;;5132518;27;20074;-73
2023/04/29 02:44:02;;;;;;;34.25;19.23;;;;;;;;;;5132573;27;20098;-75
2023/04/29 02:46:28;;;;;;;34.13;18.95;;;;;;;;;;5115078;27;20404;-74
2023/04/29 02:48:54;;;;;;;34.92;18.85;;;;;;;;;;5122726;27;20031;-75
2023/04/29 02:51:21;;;;;;;35.55;19.42;;;;;;;;;;5115805;27;20468;-73
2023/04/29 02:53:47;;;;;;;34.70;18.05;;;;;;;;;;5133640;27;20031;-74
2023/04/29 02:56:13;;;;;;;29.90;17.63;;;;;;;;;;5132341;27;20118;-73
2023/04/29 02:58:40;;;;;;;29.77;18.00;;;;;;;;;;5123497;27;20480;-73
2023/04/29 03:01:06;;;;;;;34.13;18.00;;;;;;;;;;5117183;27;20039;-74
2023/04/29 03:03:33;;;;;;;33.75;18.10;;;;;;;;;;5114869;28;20403;-74
2023/04/29 03:05:59;;;;;;;38.33;18.48;;;;;;;;;;5112464;28;20039;-73
2023/04/29 03:08:25;;;;;;;38.03;19.00;;;;;;;;;;5126672;27;20039;-74
2023/04/29 03:10:51;;;;;;;34.72;18.95;;;;;;;;;;5126310;28;20045;-73
2023/04/29 03:13:17;;;;;;;38.55;18.38;;;;;;;;;;5113206;28;20028;-73
2023/04/29 03:15:43;;;;;;;36.28;19.27;;;;;;;;;;5094541;28;20040;-74
2023/04/29 03:18:09;;;;;;;36.30;18.15;;;;;;;;;;5131091;27;20047;-73
2023/04/29 03:20:35;;;;;;;39.35;19.67;;;;;;;;;;5137609;27;20398;-73
2023/04/29 03:23:02;;;;;;;37.30;19.50;;;;;;;;;;5136824;27;20070;-74
2023/04/29 03:25:28;;;;;;;35.83;18.33;;;;;;;;;;5133318;27;20172;-74
2023/04/29 03:27:54;;;;;;;41.97;19.92;;;;;;;;;;5142351;27;20046;-75
2023/04/29 03:30:20;;;;;;;37.15;19.67;;;;;;;;;;5139741;27;20054;-74
2023/04/29 03:32:46;;;;;;;38.85;20.58;;;;;;;;;;5137610;27;20087;-74
2023/04/29 03:35:12;;;;;;;42.22;21.02;;;;;;;;;;5111717;27;20062;-76
2023/04/29 03:37:38;;;;;;;38.67;19.98;;;;;;;;;;5135834;27;20043;-73
2023/04/29 03:40:05;;;;;;;34.90;19.30;;;;;;;;;;5158119;27;20050;-73
2023/04/29 03:42:31;;;;;;;39.33;20.75;;;;;;;;;;5157961;27;20035;-76
2023/04/29 03:44:57;;;;;;;38.28;19.70;;;;;;;;;;5157785;27;20031;-75
2023/04/29 03:47:23;;;;;;;46.58;21.52;;;;;;;;;;5124045;27;20043;-75
2023/04/29 03:49:49;;;;;;;33.20;18.27;;;;;;;;;;5143604;27;20143;-73
2023/04/29 03:52:15;;;;;;;37.38;20.38;;;;;;;;;;5157922;27;20049;-74
2023/04/29 03:54:41;;;;;;;36.65;20.35;;;;;;;;;;5139178;27;20042;-73
2023/04/29 03:57:07;;;;;;;42.13;21.50;;;;;;;;;;5154910;27;20054;-73
2023/04/29 03:59:33;;;;;;;39.53;19.38;;;;;;;;;;5150374;27;20121;-75
2023/04/29 04:02:00;;;;;;;43.58;21.75;;;;;;;;;;5153941;27;20513;-75
2023/04/29 04:04:26;;;;;;;40.08;21.25;;;;;;;;;;5130443;27;20050;-73
2023/04/29 04:06:52;;;;;;;38.15;20.45;;;;;;;;;;5130021;27;20043;-73
2023/04/29 04:09:18;;;;;;;36.67;18.45;;;;;;;;;;5138825;27;20039;-76
2023/04/29 04:11:44;;;;;;;40.15;19.92;;;;;;;;;;5149713;27;20432;-73
2023/04/29 04:14:10;;;;;;;37.17;20.13;;;;;;;;;;5132934;27;20039;-76
2023/04/29 04:16:36;;;;;;;39.97;19.45;;;;;;;;;;5137363;27;20046;-73
2023/04/29 04:19:03;;;;;;;36.05;19.23;;;;;;;;;;5157596;27;20043;-74
2023/04/29 04:21:30;;;;;;;35.70;19.10;;;;;;;;;;5139278;27;20035;-74
2023/04/29 04:23:56;;;;;;;37.40;18.80;;;;;;;;;;5157147;27;20034;-75
2023/04/29 04:26:22;;;;;;;37.05;18.52;;;;;;;;;;5138328;27;20042;-75
2023/04/29 04:28:48;;;;;;;31.13;17.55;;;;;;;;;;5155454;27;20130;-74
2023/04/29 04:31:15;;;;;;;36.40;18.08;;;;;;;;;;5137054;27;20045;-76
2023/04/29 04:33:41;;;;;;;33.40;17.85;;;;;;;;;;5129726;27;20043;-74
2023/04/29 04:36:07;;;;;;;32.03;17.08;;;;;;;;;;5136511;27;20038;-74
2023/04/29 04:38:34;;;;;;;35.95;17.65;;;;;;;;;;5156716;27;20513;-76
2023/04/29 04:41:00;;;;;;;35.55;17.88;;;;;;;;;;5138719;27;20050;-76
2023/04/29 04:43:26;;;;;;;33.88;16.17;;;;;;;;;;5138611;27;20566;-74
2023/04/29 04:45:52;;;;;;;30.85;17.10;;;;;;;;;;5156349;27;20046;-76
2023/04/29 04:48:18;;;;;;;32.65;16.55;;;;;;;;;;5156744;27;20039;-75
2023/04/29 04:50:44;;;;;;;29.55;15.95;;;;;;;;;;5156700;27;20090;-75
2023/04/29 04:53:10;;;;;;;30.30;14.80;;;;;;;;;;5156605;27;20504;-75
2023/04/29 04:55:36;;;;;;;32.75;16.67;;;;;;;;;;5137997;27;20046;-73
2023/04/29 04:58:03;;;;;;;29.55;16.08;;;;;;;;;;5156579;27;20046;-75
2023/04/29 05:00:29;;;;;;;37.17;17.58;;;;;;;;;;5138055;27;20049;-76
2023/04/29 05:02:55;;;;;;;32.13;16.42;;;;;;;;;;5156303;27;20451;-74
2023/04/29 05:05:21;;;;;;;29.40;15.50;;;;;;;;;;5156936;27;20038;-75
2023/04/29 05:07:47;;;;;;;30.65;16.42;;;;;;;;;;5137674;27;20038;-74
2023/04/29 05:10:13;;;;;;;32.60;17.45;;;;;;;;;;5156447;27;20115;-75
2023/04/29 05:12:40;;;;;;;35.38;17.05;;;;;;;;;;5155988;27;20091;-75
2023/04/29 05:15:06;;;;;;;33.97;15.65;;;;;;;;;;5137830;27;20066;-75
2023/04/29 05:17:33;;;;;;;33.03;17.05;;;;;;;;;;5120943;27;20055;-75
2023/04/29 05:19:59;;;;;;;30.65;16.08;;;;;;;;;;5156179;27;20085;-76
2023/04/29 05:22:25;;;;;;;32.92;15.80;;;;;;;;;;5138562;27;20063;-74
2023/04/29 05:24:53;;;;;;;30.50;16.00;;;;;;;;;;5156842;27;20502;-76
2023/04/29 05:27:19;;;;;;;26.83;14.57;;;;;;;;;;5157158;27;20483;-74
2023/04/29 05:29:46;;;;;;;25.25;13.93;;;;;;;;;;5156278;27;20411;-74
2023/04/29 05:32:12;;;;;;;27.67;13.68;;;;;;;;;;5133175;27;20043;-75
2023/04/29 05:34:38;;;;;;;29.65;14.60;;;;;;;;;;5127147;27;20070;-74
2023/04/29 05:37:04;;;;;;;35.40;14.48;;;;;;;;;;5137474;27;20063;-74
2023/04/29 05:39:30;;;;;;;27.80;13.45;;;;;;;;;;5116611;27;20043;-75
2023/04/29 05:41:57;;;;;;;25.83;12.60;;;;;;;;;;5144478;27;20045;-75
2023/04/29 05:44:24;;;;;;;27.63;13.15;;;;;;;;;;5155517;27;20103;-75
2023/04/29 05:46:50;;;;;;;24.20;12.13;;;;;;;;;;5155485;27;20038;-75
2023/04/29 05:49:16;;;;;;;22.10;11.43;;;;;;;;;;5155441;27;20056;-75
2023/04/29 05:51:43;;;;;;;22.10;11.45;;;;;;;;;;5155223;27;20045;-75
2023/04/29 05:54:09;;;;;;;24.70;11.85;;;;;;;;;;5136816;27;20034;-75
2023/04/29 05:56:35;;;;;;;27.35;11.82;;;;;;;;;;5147014;27;20035;-75
2023/04/29 05:59:01;;;;;;;24.27;11.98;;;;;;;;;;5148997;27;20530;-74
2023/04/29 06:01:27;;;;;;;19.98;10.95;;;;;;;;;;5142672;27;20057;-75
2023/04/29 06:03:53;;;;;;;18.48;10.13;;;;;;;;;;5119561;27;20050;-74
2023/04/29 06:06:19;;;;;;;22.08;10.43;;;;;;;;;;5136589;27;20044;-74
2023/04/29 06:08:46;;;;;;;21.52;10.63;;;;;;;;;;5126069;27;20065;-74
2023/04/29 06:11:13;;;;;;;19.15;9.40;;;;;;;;;;5130340;27;20047;-75
2023/04/29 06:13:39;;;;;;;21.70;9.60;;;;;;;;;;5143370;27;20038;-76
2023/04/29 06:16:06;;;;;;;18.35;9.50;;;;;;;;;;5135628;27;20039;-76
2023/04/29 06:18:32;;;;;;;16.58;9.73;;;;;;;;;;5140945;27;20052;-76
2023/04/29 06:20:58;;;;;;;20.67;9.90;;;;;;;;;;5154801;27;20042;-76
2023/04/29 06:23:24;;;;;;;15.70;9.48;;;;;;;;;;5135991;27;20038;-76
2023/04/29 06:25:51;;;;;;;16.73;9.13;;;;;;;;;;5149794;27;20038;-74
2023/04/29 06:28:17;;;;;;;17.35;8.95;;;;;;;;;;5141661;27;20051;-76
2023/04/29 06:30:45;;;;;;;15.55;9.52;;;;;;;;;;5120658;27;20031;-76
2023/04/29 06:33:12;;;;;;;15.57;8.50;;;;;;;;;;5136220;27;20047;-75
2023/04/29 06:35:40;;;;;;;16.10;8.38;;;;;;;;;;5135996;27;20038;-75
2023/04/29 06:38:07;;;;;;;16.08;8.32;;;;;;;;;;5124908;27;20043;-76
2023/04/29 06:40:33;;;;;;;12.45;7.30;;;;;;;;;;5148385;27;20041;-75
2023/04/29 06:43:01;;;;;;;15.40;7.82;;;;;;;;;;5124732;27;20050;-76
2023/04/29 06:45:27;;;;;;;13.90;7.60;;;;;;;;;;5120362;27;20080;-76
2023/04/29 06:47:53;;;;;;;14.07;7.72;;;;;;;;;;5122568;27;20047;-75
2023/04/29 06:50:19;;;;;;;17.20;8.18;;;;;;;;;;5135954;27;20037;-76
2023/04/29 06:52:45;;;;;;;14.20;7.57;;;;;;;;;;5135845;27;20395;-76
2023/04/29 06:55:11;;;;;;;13.45;7.63;;;;;;;;;;5123686;27;20107;-75
2023/04/29 06:57:37;;;;;;;14.70;7.15;;;;;;;;;;5148264;27;20083;-75
2023/04/29 07:00:04;;;;;;;13.48;7.43;;;;;;;;;;5133639;27;20032;-75
2023/04/29 07:02:30;;;;;;;11.23;7.57;;;;;;;;;;5150630;27;20510;-77
2023/04/29 07:04:56;;;;;;;12.38;6.93;;;;;;;;;;5139457;27;20035;-77
2023/04/29 07:07:22;;;;;;;14.88;7.53;;;;;;;;;;5135695;27;20039;-75
2023/04/29 07:09:50;;;;;;;13.02;7.13;;;;;;;;;;5139458;27;20483;-76
2023/04/29 07:12:16;;;;;;;12.07;6.50;;;;;;;;;;5145784;27;20114;-76
2023/04/29 07:14:42;;;;;;;8.70;6.32;;;;;;;;;;5129383;27;20034;-75
2023/04/29 07:17:09;;;;;;;14.27;6.90;;;;;;;;;;5121231;27;20043;-75
2023/04/29 07:19:35;;;;;;;11.32;6.28;;;;;;;;;;5153798;27;20039;-75
2023/04/29 07:22:01;;;;;;;9.93;6.10;;;;;;;;;;5135682;27;20393;-75
2023/04/29 07:24:27;;;;;;;9.13;6.10;;;;;;;;;;5104035;27;20050;-74
2023/04/29 07:26:53;;;;;;;9.02;5.70;;;;;;;;;;5135331;27;20379;-73
2023/04/29 07:29:19;;;;;;;10.73;5.82;;;;;;;;;;5122674;27;20058;-74
2023/04/29 07:31:46;;;;;;;12.90;6.43;;;;;;;;;;5121418;28;20044;-74
2023/04/29 07:34:12;;;;;;;10.68;6.10;;;;;;;;;;5134944;27;20083;-74
2023/04/29 07:36:38;;;;;;;10.57;5.95;;;;;;;;;;5153958;27;20368;-74
2023/04/29 07:39:04;;;;;;;7.47;5.20;;;;;;;;;;5134864;27;20045;-75
2023/04/29 07:41:30;;;;;;;10.32;6.00;;;;;;;;;;5154235;27;20091;-74
2023/04/29 07:43:56;;;;;;;8.60;5.00;;;;;;;;;;5122475;28;20487;-74
2023/04/29 07:46:23;;;;;;;9.60;5.35;;;;;;;;;;5133982;27;20066;-75
2023/04/29 07:48:49;;;;;;;8.95;5.45;;;;;;;;;;5135298;27;20031;-75
2023/04/29 07:51:15;;;;;;;9.70;5.47;;;;;;;;;;5134956;27;20050;-74
2023/04/29 07:53:42;;;;;;;9.50;5.90;;;;;;;;;;5133828;27;20046;-76
2023/04/29 07:56:08;;;;;;;11.07;5.50;;;;;;;;;;5133132;27;20043;-73
2023/04/29 07:58:35;;;;;;;10.05;5.43;;;;;;;;;;5114935;28;20039;-76
2023/04/29 08:01:08;;;;;;;8.77;5.28;;;;;;;;;;5134957;27;20034;-76
2023/04/29 08:03:34;;;;;;;8.57;5.25;;;;;;;;;;5135265;27;20042;-75
2023/04/29 08:06:01;;;;;;;10.68;5.55;;;;;;;;;;5157720;27;20390;-74
2023/04/29 08:08:27;;;;;;;8.70;5.30;;;;;;;;;;5157758;27;20074;-74
2023/04/29 08:10:53;;;;;;;11.65;5.63;;;;;;;;;;5149042;27;20039;-75
2023/04/29 08:13:19;;;;;;;8.48;5.35;;;;;;;;;;5150376;27;20038;-75
2023/04/29 08:15:45;;;;;;;8.18;5.22;;;;;;;;;;5126377;27;20399;-74
2023/04/29 08:18:11;;;;;;;7.78;5.28;;;;;;;;;;5138318;27;20035;-75
2023/04/29 08:20:37;;;;;;;8.20;5.88;;;;;;;;;;5124065;27;20039;-77
2023/04/29 08:23:03;;;;;;;9.27;5.25;;;;;;;;;;5138414;27;20122;-75
2023/04/29 08:25:29;;;;;;;9.60;5.53;;;;;;;;;;5108836;27;20511;-76
2023/04/29 08:27:56;;;;;;;10.45;5.70;;;;;;;;;;5123081;27;20073;-74
2023/04/29 08:30:23;;;;;;;10.23;5.18;;;;;;;;;;5138526;27;20053;-75
2023/04/29 08:32:49;;;;;;;11.13;5.35;;;;;;;;;;5157402;27;20114;-74
2023/04/29 08:35:16;;;;;;;8.85;4.97;;;;;;;;;;5138159;27;20467;-75
2023/04/29 08:37:42;;;;;;;9.57;5.30;;;;;;;;;;5157320;27;20050;-75
2023/04/29 08:40:08;;;;;;;9.25;5.00;;;;;;;;;;5121112;27;20051;-74
2023/04/29 08:42:36;;;;;;;9.05;5.32;;;;;;;;;;5138402;27;20091;-74
2023/04/29 08:45:03;;;;;;;9.75;5.25;;;;;;;;;;5145617;27;20038;-74
2023/04/29 08:47:30;;;;;;;8.18;5.03;;;;;;;;;;5124444;27;20039;-74
2023/04/29 08:50:02;;;;;;;7.53;5.22;;;;;;;;;;5138043;27;20026;-75
2023/04/29 08:52:29;;;;;;;9.52;4.95;;;;;;;;;;5138330;27;20039;-73
2023/04/29 08:54:55;;;;;;;8.00;4.85;;;;;;;;;;5123751;27;20498;-74
2023/04/29 08:57:22;;;;;;;8.90;4.93;;;;;;;;;;5145356;27;20607;-74
2023/04/29 08:59:49;;;;;;;8.65;5.57;;;;;;;;;;5150272;27;20043;-75
2023/04/29 09:02:17;;;;;;;10.13;5.68;;;;;;;;;;5137932;27;20503;-74
2023/04/29 09:04:52;;;;;;;6.85;4.32;;;;;;;;;;5149470;27;20042;-75
2023/04/29 09:07:18;;;;;;;;;;;;;;;;;;5150566;27;20233;-75
2023/04/29 09:09:44;;;;;;;7.40;4.70;;;;;;;;;;5138058;27;20037;-75
2023/04/29 09:12:10;;;;;;;6.90;4.38;;;;;;;;;;5115724;27;20041;-75
2023/04/29 09:14:36;;;;;;;7.32;4.68;;;;;;;;;;5137993;27;20050;-73
2023/04/29 09:17:02;;;;;;;8.10;4.55;;;;;;;;;;5142380;27;20050;-75
2023/04/29 09:19:30;;;;;;;7.75;4.90;;;;;;;;;;5135848;27;20371;-75
2023/04/29 09:21:56;;;;;;;7.63;4.30;;;;;;;;;;5121148;27;20567;-75
2023/04/29 09:24:26;;;;;;;8.90;4.90;;;;;;;;;;5142025;27;20035;-73
2023/04/29 09:26:52;;;;;;;7.55;4.80;;;;;;;;;;5138916;27;20058;-74
2023/04/29 09:29:19;;;;;;;7.13;4.95;;;;;;;;;;5120478;27;20479;-75
2023/04/29 09:31:45;;;;;;;8.68;4.95;;;;;;;;;;5130414;27;20119;-75
2023/04/29 09:34:13;;;;;;;6.65;4.68;;;;;;;;;;5125954;27;20047;-75
2023/04/29 09:36:39;;;;;;;9.32;4.90;;;;;;;;;;5134207;27;20042;-76
2023/04/29 09:39:10;;;;;;;7.57;4.97;;;;;;;;;;5117187;27;20042;-77
2023/04/29 09:41:57;;;;;;;6.95;4.80;;;;;;;;;;5135475;27;20035;-75
2023/04/29 09:44:25;;;;;;;8.18;4.88;;;;;;;;;;5134680;27;20035;-76
2023/04/29 09:47:08;;;;;;;8.77;4.78;;;;;;;;;;5134208;27;20046;-76
2023/04/29 09:49:36;;;;;;;8.07;4.82;;;;;;;;;;5135059;27;20035;-76
2023/04/29 09:52:06;;;;;;;7.60;4.82;;;;;;;;;;5124563;27;20526;-77
2023/04/29 09:54:33;;;;;;;8.25;4.90;;;;;;;;;;5130329;27;20131;-76
2023/04/29 09:57:01;;;;;;;8.02;5.07;;;;;;;;;;5116783;27;20383;-75
2023/04/29 09:59:27;;;;;;;7.35;4.85;;;;;;;;;;5133337;27;20054;-75
2023/04/29 10:01:54;;;;;;;9.82;5.28;;;;;;;;;;5133501;27;20122;-76
2023/04/29 10:04:21;;;;;;;9.27;4.82;;;;;;;;;;5133352;27;20043;-75
2023/04/29 10:06:51;;;;;;;6.65;4.78;;;;;;;;;;5133177;27;20154;-78
2023/04/29 10:09:18;;;;;;;7.32;4.88;;;;;;;;;;5133274;27;20067;-77
2023/04/29 10:11:45;;;;;;;9.63;4.85;;;;;;;;;;5133259;27;20041;-78
2023/04/29 10:14:18;;;;;;;8.07;4.97;;;;;;;;;;5133444;27;20046;-76
2023/04/29 10:16:59;;;;;;;8.50;5.30;;;;;;;;;;5133003;27;20043;-74
2023/04/29 10:19:27;;;;;;;9.25;4.93;;;;;;;;;;5133953;27;20027;-74
2023/04/29 10:21:54;;;;;;;11.98;5.70;;;;;;;;;;5133991;27;20134;-77
2023/04/29 10:24:22;;;;;;;10.75;5.00;;;;;;;;;;5133399;27;20054;-78
2023/04/29 10:26:50;;;;;;;6.85;4.95;;;;;;;;;;5118279;27;20052;-78
2023/04/29 10:29:17;;;;;;;10.07;5.28;;;;;;;;;;5132905;27;20507;-76
2023/04/29 10:31:43;;;;;;;9.52;5.07;;;;;;;;;;5116045;27;20035;-76
2023/04/29 10:34:11;;;;;;;9.52;5.22;;;;;;;;;;5130647;27;20035;-78
2023/04/29 10:36:38;;;;;;;8.40;5.22;;;;;;;;;;5112326;28;20035;-77
2023/04/29 10:39:06;;;;;;;7.20;4.63;;;;;;;;;;5127023;27;20436;-76
2023/04/29 10:41:58;;;;;;;8.40;4.70;;;;;;;;;;5127537;27;20069;-75
2023/04/29 10:44:24;;;;;;;7.63;5.35;;;;;;;;;;5122703;27;20127;-75
2023/04/29 10:47:10;;;;;;;6.85;4.85;;;;;;;;;;5132827;27;20484;-75
2023/04/29 10:49:36;;;;;;;7.00;4.60;;;;;;;;;;5132324;27;20483;-73
2023/04/29 10:52:05;;;;;;;7.85;4.65;;;;;;;;;;5132726;27;20433;-75
2023/04/29 10:54:31;;;;;;;8.55;4.68;;;;;;;;;;5126857;27;20031;-75
2023/04/29 10:56:58;;;;;;;7.50;4.60;;;;;;;;;;5091165;27;20533;-73
2023/04/29 10:59:33;;;;;;;7.82;3.83;;;;;;;;;;5128961;27;20027;-76
2023/04/29 11:01:59;;;;;;;8.65;3.50;;;;;;;;;;5111977;28;20042;-76
2023/04/29 11:04:25;;;;;;;6.30;3.53;;;;;;;;;;5113597;27;20099;-77
2023/04/29 11:06:53;;;;;;;7.45;4.10;;;;;;;;;;5133703;27;20039;-78
2023/04/29 11:09:29;;;;;;;5.68;3.70;;;;;;;;;;5116991;27;20111;-77
2023/04/29 11:11:57;;;;;;;9.65;4.20;;;;;;;;;;5122007;27;20039;-78
2023/04/29 11:14:37;;;;;;;6.28;4.03;;;;;;;;;;5132303;27;20039;-77
2023/04/29 11:17:14;;;;;;;6.72;3.30;;;;;;;;;;5132526;28;20384;-77
2023/04/29 11:19:41;;;;;;;6.80;3.20;;;;;;;;;;5104097;28;20051;-77
2023/04/29 11:22:13;;;;;;;7.82;3.50;;;;;;;;;;5130391;28;20050;-75
2023/04/29 11:25:10;;;;;;;7.47;3.70;;;;;;;;;;5132514;28;20480;-74
2023/04/29 11:27:37;;;;;;;6.22;3.65;;;;;;;;;;5105713;27;20488;-74
2023/04/29 11:30:05;;;;;;;5.90;3.10;;;;;;;;;;5123784;28;20062;-76
2023/04/29 11:32:39;;;;;;;6.78;3.90;;;;;;;;;;5122554;28;20045;-74
2023/04/29 11:35:08;;;;;;;9.20;4.60;;;;;;;;;;5123479;28;20035;-74
2023/04/29 11:37:35;;;;;;;11.80;4.70;;;;;;;;;;5131523;27;20046;-72
2023/04/29 11:40:01;;;;;;;8.32;4.20;;;;;;;;;;5117664;27;20039;-74
2023/04/29 11:42:27;;;;;;;6.93;4.18;;;;;;;;;;5139049;27;20053;-75
2023/04/29 11:44:59;;;;;;;7.88;4.70;;;;;;;;;;5125011;27;20050;-75
2023/04/29 11:47:28;;;;;;;8.50;4.90;;;;;;;;;;5157766;27;20082;-73
2023/04/29 11:50:02;;;;;;;7.50;4.35;;;;;;;;;;5137458;27;20039;-74
2023/04/29 11:52:28;;;;;;;6.68;4.20;;;;;;;;;;5137057;27;20122;-75
2023/04/29 11:54:54;;;;;;;6.20;3.45;;;;;;;;;;5120145;27;20043;-77
2023/04/29 11:57:20;;;;;;;6.38;3.50;;;;;;;;;;5132470;27;20475;-76
2023/04/29 11:59:46;;;;;;;6.95;3.38;;;;;;;;;;5132164;27;20066;-76
2023/04/29 12:02:13;;;;;;;6.93;3.40;;;;;;;;;;5134272;27;20046;-76
2023/04/29 12:04:48;;;;;;;6.35;3.10;;;;;;;;;;5137247;27;20058;-75
2023/04/29 12:07:18;;;;;;;7.95;2.90;;;;;;;;;;5142647;27;20399;-76
2023/04/29 12:09:45;;;;;;;7.97;3.20;;;;;;;;;;5122389;27;20043;-74
2023/04/29 12:12:11;;;;;;;5.75;2.80;;;;;;;;;;5154609;27;20043;-77
2023/04/29 12:14:37;;;;;;;5.22;2.80;;;;;;;;;;5128343;27;20426;-73
2023/04/29 12:17:04;;;;;;;6.68;3.17;;;;;;;;;;5121910;27;20042;-74
2023/04/29 12:19:31;;;;;;;4.85;2.47;;;;;;;;;;5138985;27;20038;-73
2023/04/29 12:22:00;;;;;;;4.65;2.90;;;;;;;;;;5143424;27;20039;-73
2023/04/29 12:24:26;;;;;;;4.57;2.80;;;;;;;;;;5138918;27;20034;-74
2023/04/29 12:26:53;;;;;;;5.90;3.00;;;;;;;;;;5157257;27;20398;-76
2023/04/29 12:29:22;;;;;;;5.88;3.13;;;;;;;;;;5138524;27;20054;-76
2023/04/29 12:31:48;;;;;;;6.63;2.85;;;;;;;;;;5109128;27;20054;-74
2023/04/29 12:34:15;;;;;;;6.22;2.72;;;;;;;;;;5136854;27;20391;-74
2023/04/29 12:36:41;;;;;;;5.63;2.58;;;;;;;;;;5138185;27;20080;-74
2023/04/29 12:39:10;;;;;;;4.72;2.72;;;;;;;;;;5138547;27;20483;-73
2023/04/29 12:41:45;;;;;;;3.65;2.10;;;;;;;;;;5156763;27;20417;-73
2023/04/29 12:44:11;;;;;;;5.45;2.83;;;;;;;;;;5157009;27;20039;-74
2023/04/29 12:46:38;;;;;;;4.50;2.40;;;;;;;;;;5138275;27;20394;-74
2023/04/29 12:49:04;;;;;;;6.15;2.35;;;;;;;;;;5156792;27;20042;-74
2023/04/29 12:51:31;;;;;;;4.03;2.28;;;;;;;;;;5137940;27;20034;-74
2023/04/29 12:53:58;;;;;;;5.95;2.40;;;;;;;;;;5121003;27;20035;-75
2023/04/29 12:56:25;;;;;;;6.63;2.42;;;;;;;;;;5156717;27;20027;-74
2023/04/29 12:58:51;;;;;;;6.07;2.30;;;;;;;;;;5128207;27;20542;-74
2023/04/29 13:01:17;;;;;;;4.65;2.20;;;;;;;;;;5133154;27;20043;-73
2023/04/29 13:03:43;;;;;;;4.07;2.25;;;;;;;;;;5137642;27;20054;-74
2023/04/29 13:06:09;;;;;;;5.32;2.05;;;;;;;;;;5155900;27;20117;-76
2023/04/29 13:08:36;;;;;;;5.20;2.58;;;;;;;;;;5135621;27;20035;-75
2023/04/29 13:11:02;;;;;;;4.75;2.05;;;;;;;;;;5130767;27;20117;-74
2023/04/29 13:13:29;;;;;;;5.25;2.40;;;;;;;;;;5120706;27;20041;-75
2023/04/29 13:15:55;;;;;;;4.13;2.30;;;;;;;;;;5137658;27;20494;-74
2023/04/29 13:18:21;;;;;;;3.88;2.42;;;;;;;;;;5156138;27;20179;-76
2023/04/29 13:20:47;;;;;;;4.82;2.42;;;;;;;;;;5128454;27;20392;-75
2023/04/29 13:23:13;;;;;;;15.55;2.92;;;;;;;;;;5135294;27;20095;-74
2023/04/29 13:25:39;;;;;;;11.48;2.90;;;;;;;;;;5142379;27;20038;-73
2023/04/29 13:28:06;;;;;;;4.57;2.40;;;;;;;;;;5109434;27;20078;-75
2023/04/29 13:30:32;;;;;;;4.40;2.30;;;;;;;;;;5097242;27;20050;-75
2023/04/29 13:32:58;;;;;;;5.40;2.30;;;;;;;;;;5116754;27;20110;-75
2023/04/29 13:35:24;;;;;;;5.50;2.70;;;;;;;;;;5134460;27;20162;-74
2023/04/29 13:37:51;;;;;;;5.13;2.50;;;;;;;;;;5137074;27;20038;-74
2023/04/29 13:40:17;;;;;;;4.47;2.28;;;;;;;;;;5099757;27;20043;-75
2023/04/29 13:42:43;;;;;;;5.80;1.90;;;;;;;;;;5118877;27;20487;-74
2023/04/29 13:45:09;;;;;;;5.65;2.30;;;;;;;;;;5137075;27;20054;-74
2023/04/29 13:47:36;;;;;;;4.88;2.15;;;;;;;;;;5136975;27;20035;-75
2023/04/29 13:50:02;;;;;;;4.20;2.20;;;;;;;;;;5155236;27;20070;-74
2023/04/29 13:52:30;;;;;;;3.92;1.80;;;;;;;;;;5136908;27;20038;-74
2023/04/29 13:54:56;;;;;;;4.97;2.35;;;;;;;;;;5136413;27;20119;-75
2023/04/29 13:57:22;;;;;;;3.55;1.80;;;;;;;;;;5136924;27;20046;-73
2023/04/29 13:59:51;;;;;;;4.90;1.67;;;;;;;;;;5155179;27;20391;-74
2023/04/29 14:02:17;;;;;;;4.25;1.60;;;;;;;;;;5154571;27;20038;-73
2023/04/29 14:04:43;;;;;;;3.67;1.40;;;;;;;;;;5136302;27;20041;-73
2023/04/29 14:07:10;;;;;;;1.92;1.10;;;;;;;;;;5128165;27;20035;-75
2023/04/29 14:09:36;;;;;;;2.63;1.25;;;;;;;;;;5130892;27;20064;-74
2023/04/29 14:12:02;;;;;;;3.10;1.52;;;;;;;;;;5119267;27;20517;-74
2023/04/29 14:14:28;;;;;;;4.88;1.75;;;;;;;;;;5119456;27;20083;-74
2023/04/29 14:16:55;;;;;;;3.17;1.60;;;;;;;;;;5121855;27;20042;-74
2023/04/29 14:19:21;;;;;;;4.05;1.60;;;;;;;;;;5119859;27;20551;-73
2023/04/29 14:21:47;;;;;;;3.10;1.30;;;;;;;;;;5133943;27;20180;-75
2023/04/29 14:24:13;;;;;;;4.47;2.05;;;;;;;;;;5134335;27;20039;-75
2023/04/29 14:26:40;;;;;;;3.92;1.90;;;;;;;;;;5130615;27;20042;-74
2023/04/29 14:29:06;;;;;;;4.50;2.10;;;;;;;;;;5135793;27;20419;-73
2023/04/29 14:31:37;;;;;;;4.13;1.90;;;;;;;;;;5119622;27;20057;-74